Time;durP1;ratioP1;P1;durP2;ratioP2;P2;SDS_P1;SDS_P2;PMS_P1;PMS_P2;Temp;Humidity;BMP_temperature;BMP_pressure;BME280_temperature;BME280_humidity;BME280_pressure;Samples;Min_cycle;Max_cycle;Signal;HPM_P1;HPM_P2
2022/08/27 00:00:00;;;;;;;13.65;3.33;;;15.20;99.90;;;;;;5074929;27;207121;-69
2022/08/27 00:02:26;;;;;;;11.73;3.25;;;15.20;99.90;;;;;;5103731;28;20047;-70
2022/08/27 00:04:52;;;;;;;10.18;3.20;;;15.10;99.90;;;;;;5073529;27;207156;-70
2022/08/27 00:07:18;;;;;;;9.95;3.17;;;15.10;99.90;;;;;;5106156;28;20055;-70
2022/08/27 00:09:45;;;;;;;13.60;3.30;;;15.10;99.90;;;;;;5065580;27;209095;-70
2022/08/27 00:12:11;;;;;;;12.00;3.60;;;15.00;99.90;;;;;;5105976;28;20063;-71
2022/08/27 00:14:38;;;;;;;10.18;3.28;;;15.00;99.90;;;;;;5055311;27;210698;-70
2022/08/27 00:17:05;;;;;;;11.95;3.70;;;14.90;99.90;;;;;;5084844;28;20051;-70
2022/08/27 00:19:32;;;;;;;12.75;3.90;;;14.90;99.90;;;;;;5036037;28;211679;-71
2022/08/27 00:21:58;;;;;;;14.93;3.90;;;14.90;99.90;;;;;;5081811;28;20067;-71
2022/08/27 00:24:24;;;;;;;12.15;3.58;;;14.90;99.90;;;;;;5044921;28;207826;-70
2022/08/27 00:26:52;;;;;;;11.82;3.70;;;14.90;99.90;;;;;;5087934;28;20118;-70
2022/08/27 00:29:19;;;;;;;13.38;3.83;;;14.80;99.90;;;;;;5041385;28;220365;-71
2022/08/27 00:31:45;;;;;;;13.57;4.20;;;14.80;99.90;;;;;;5080658;28;20058;-71
2022/08/27 00:34:11;;;;;;;14.93;4.78;;;14.80;99.90;;;;;;5038891;28;215009;-70
2022/08/27 00:36:38;;;;;;;13.40;4.93;;;14.80;99.90;;;;;;5085628;28;20052;-71
2022/08/27 00:39:04;;;;;;;12.60;4.40;;;14.70;99.90;;;;;;5029596;28;206998;-70
2022/08/27 00:41:30;;;;;;;14.73;4.07;;;14.70;99.90;;;;;;5083194;28;20058;-70
2022/08/27 00:43:59;;;;;;;10.40;4.20;;;14.70;99.90;;;;;;5030629;28;210408;-70
2022/08/27 00:46:33;;;;;;;12.90;4.40;;;14.70;99.90;;;;;;5079348;28;20064;-70
2022/08/27 00:49:04;;;;;;;15.25;5.97;;;14.70;99.90;;;;;;5043783;28;209170;-70
2022/08/27 00:51:31;;;;;;;33.45;13.82;;;14.70;99.90;;;;;;5091380;28;20048;-70
2022/08/27 00:53:58;;;;;;;28.67;14.32;;;14.60;99.90;;;;;;5033379;28;208113;-70
2022/08/27 00:56:30;;;;;;;25.30;14.27;;;14.60;99.90;;;;;;5081467;28;20063;-70
2022/08/27 00:58:56;;;;;;;25.92;13.75;;;14.60;99.90;;;;;;5038852;28;207093;-70
2022/08/27 01:01:29;;;;;;;31.50;17.70;;;14.60;99.90;;;;;;5077106;28;20047;-70
2022/08/27 01:04:04;;;;;;;29.98;16.38;;;14.50;99.90;;;;;;5035910;27;208622;-70
2022/08/27 01:06:35;;;;;;;37.65;21.10;;;14.60;99.90;;;;;;5104528;27;20055;-70
2022/08/27 01:09:10;;;;;;;31.20;16.58;;;14.60;99.90;;;;;;5046297;28;207095;-70
2022/08/27 01:11:37;;;;;;;30.38;15.60;;;14.50;99.90;;;;;;5079368;28;20044;-70
2022/08/27 01:14:04;;;;;;;20.88;11.20;;;14.60;99.90;;;;;;5049736;27;224646;-70
2022/08/27 01:16:36;;;;;;;16.98;8.10;;;14.50;99.90;;;;;;5095507;27;20692;-70
2022/08/27 01:19:06;;;;;;;15.85;6.97;;;14.50;99.90;;;;;;5045041;27;207219;-70
2022/08/27 01:21:52;;;;;;;15.73;6.37;;;14.40;99.90;;;;;;5081528;28;20052;-70
2022/08/27 01:24:29;;;;;;;14.70;5.45;;;14.40;99.90;;;;;;5047301;28;206741;-70
2022/08/27 01:26:56;;;;;;;13.25;4.15;;;14.40;99.90;;;;;;5083981;28;20056;-69
2022/08/27 01:29:23;;;;;;;13.48;4.75;;;14.40;99.90;;;;;;5044804;28;209921;-70
2022/08/27 01:31:49;;;;;;;12.63;4.53;;;14.40;99.90;;;;;;5083070;28;20047;-70
2022/08/27 01:34:15;;;;;;;12.18;4.45;;;14.40;99.90;;;;;;5050920;27;207893;-70
2022/08/27 01:36:41;;;;;;;13.02;4.30;;;14.40;99.90;;;;;;5088326;28;20056;-70
2022/08/27 01:39:07;;;;;;;11.00;4.05;;;14.40;99.90;;;;;;5068254;27;164683;-70
2022/08/27 01:41:34;;;;;;;12.55;4.10;;;14.30;99.90;;;;;;5088887;28;20056;-70
2022/08/27 01:44:00;;;;;;;11.20;4.35;;;14.30;99.90;;;;;;5037984;28;211880;-69
2022/08/27 01:46:27;;;;;;;11.65;4.20;;;14.30;99.90;;;;;;5082891;28;20067;-69
2022/08/27 01:48:54;;;;;;;14.30;4.78;;;14.30;99.90;;;;;;5044934;28;205986;-69
2022/08/27 01:51:20;;;;;;;14.60;4.03;;;14.30;99.90;;;;;;5093869;28;20040;-71
2022/08/27 01:53:47;;;;;;;12.02;4.45;;;14.20;99.90;;;;;;5038789;28;208662;-70
2022/08/27 01:56:14;;;;;;;13.25;4.47;;;14.20;99.90;;;;;;5091124;28;20103;-71
2022/08/27 01:58:40;;;;;;;12.98;4.20;;;14.20;99.90;;;;;;5040879;28;206650;-70
2022/08/27 02:01:10;;;;;;;12.95;4.13;;;14.30;99.90;;;;;;5086609;28;20040;-70
2022/08/27 02:03:39;;;;;;;13.77;4.30;;;14.20;99.90;;;;;;5045073;27;209859;-70
2022/08/27 02:06:08;;;;;;;16.25;4.03;;;14.20;99.90;;;;;;5106337;27;20036;-70
2022/08/27 02:08:34;;;;;;;11.35;4.30;;;14.20;99.90;;;;;;5043962;28;209969;-69
2022/08/27 02:11:01;;;;;;;12.25;3.78;;;14.10;99.90;;;;;;5093823;28;20051;-70
2022/08/27 02:13:27;;;;;;;11.70;3.88;;;14.10;99.90;;;;;;5043540;28;215733;-70
2022/08/27 02:15:53;;;;;;;10.85;4.13;;;14.10;99.90;;;;;;5089954;28;20052;-70
2022/08/27 02:18:20;;;;;;;10.98;3.80;;;14.10;99.90;;;;;;5038071;28;208127;-70
2022/08/27 02:20:47;;;;;;;12.15;3.47;;;14.10;99.90;;;;;;5114634;28;20054;-70
2022/08/27 02:23:15;;;;;;;10.02;3.78;;;14.10;99.90;;;;;;5044356;28;209849;-69
2022/08/27 02:25:41;;;;;;;12.70;3.75;;;14.00;99.90;;;;;;5073600;28;20056;-69
2022/08/27 02:28:08;;;;;;;11.77;3.90;;;14.10;99.90;;;;;;5046711;28;206807;-70
2022/08/27 02:30:36;;;;;;;10.30;3.50;;;14.00;99.90;;;;;;5098863;28;20913;-70
2022/08/27 02:33:04;;;;;;;9.77;4.18;;;14.00;99.90;;;;;;5050052;28;209676;-69
2022/08/27 02:35:32;;;;;;;11.98;3.67;;;14.00;99.90;;;;;;5106929;28;20075;-70
2022/08/27 02:37:59;;;;;;;12.67;4.00;;;14.00;99.90;;;;;;5059489;27;210915;-69
2022/08/27 02:40:26;;;;;;;9.65;3.72;;;14.00;99.90;;;;;;5118921;27;20062;-70
2022/08/27 02:42:52;;;;;;;11.90;3.90;;;13.90;99.90;;;;;;5089958;27;207486;-70
2022/08/27 02:45:19;;;;;;;10.07;3.70;;;13.90;99.90;;;;;;5047837;28;47603;-70
2022/08/27 02:47:47;;;;;;;11.98;4.05;;;13.90;99.90;;;;;;5089421;28;20052;-70
2022/08/27 02:50:14;;;;;;;9.90;4.05;;;13.90;99.90;;;;;;5062188;28;205702;-70
2022/08/27 02:52:40;;;;;;;12.23;3.97;;;13.90;99.90;;;;;;5108803;28;20074;-70
2022/08/27 02:55:07;;;;;;;10.40;4.05;;;13.80;99.90;;;;;;5065159;27;212701;-70
2022/08/27 02:57:34;;;;;;;11.25;4.07;;;13.80;99.90;;;;;;5105008;27;20044;-70
2022/08/27 03:00:00;;;;;;;11.85;3.75;;;13.80;99.90;;;;;;5075893;27;210829;-70
2022/08/27 03:02:26;;;;;;;9.50;3.70;;;13.80;99.90;;;;;;5120184;27;20329;-70
2022/08/27 03:04:53;;;;;;;10.00;3.80;;;13.80;99.90;;;;;;5057796;27;216671;-70
2022/08/27 03:07:22;;;;;;;9.02;3.50;;;13.70;99.90;;;;;;5106479;27;20597;-69
2022/08/27 03:09:48;;;;;;;12.43;3.80;;;13.70;99.90;;;;;;5052964;27;209606;-70
2022/08/27 03:12:14;;;;;;;10.40;3.75;;;13.70;99.90;;;;;;5108578;27;20058;-70
2022/08/27 03:14:41;;;;;;;10.80;3.42;;;13.70;99.90;;;;;;5033890;28;206725;-70
2022/08/27 03:19:52;;;;;;;10.98;3.53;;;13.70;99.90;;;;;;5052722;28;194698;-69
2022/08/27 03:22:18;;;;;;;13.10;3.90;;;13.60;99.90;;;;;;5103137;28;20047;-70
2022/08/27 03:24:45;;;;;;;10.98;3.78;;;13.60;99.90;;;;;;5060482;27;210693;-70
2022/08/27 03:27:11;;;;;;;12.32;3.75;;;13.60;99.90;;;;;;5103821;28;20527;-70
2022/08/27 03:29:37;;;;;;;10.50;3.58;;;13.60;99.90;;;;;;5058216;28;206922;-69
2022/08/27 03:32:05;;;;;;;12.48;3.60;;;13.60;99.90;;;;;;5100603;27;20055;-70
2022/08/27 03:34:32;;;;;;;13.52;3.80;;;13.60;99.90;;;;;;5070498;27;213250;-70
2022/08/27 03:36:59;;;;;;;11.80;4.38;;;13.70;99.90;;;;;;5108770;27;20055;-70
2022/08/27 03:39:25;;;;;;;11.10;4.05;;;13.70;99.90;;;;;;5056248;27;209523;-70
2022/08/27 03:41:51;;;;;;;10.38;4.00;;;13.70;99.90;;;;;;5104787;27;20056;-70
2022/08/27 03:44:17;;;;;;;9.63;3.50;;;13.70;99.90;;;;;;5061348;27;208607;-70
2022/08/27 03:46:43;;;;;;;10.98;3.70;;;13.70;99.90;;;;;;5102786;28;20423;-70
2022/08/27 03:49:10;;;;;;;11.43;3.72;;;13.70;99.90;;;;;;5069093;27;209564;-70
2022/08/27 03:51:36;;;;;;;8.70;3.40;;;13.70;99.90;;;;;;5105386;28;20055;-70
2022/08/27 03:54:02;;;;;;;9.77;3.40;;;13.60;99.90;;;;;;5069829;27;207150;-70
2022/08/27 03:56:29;;;;;;;9.23;3.25;;;13.60;99.90;;;;;;5115098;27;20051;-70
2022/08/27 03:58:55;;;;;;;8.93;3.00;;;13.60;99.90;;;;;;5061684;27;204808;-70
2022/08/27 04:01:21;;;;;;;10.38;3.42;;;13.50;99.90;;;;;;5114695;27;20051;-70
2022/08/27 04:03:47;;;;;;;8.70;2.90;;;13.50;99.90;;;;;;5055927;27;206997;-70
2022/08/27 04:06:13;;;;;;;9.88;3.20;;;13.50;99.90;;;;;;5108513;27;20051;-70
2022/08/27 04:08:39;;;;;;;8.98;2.83;;;13.50;99.90;;;;;;5064898;27;207854;-71
2022/08/27 04:11:06;;;;;;;10.93;3.45;;;13.50;99.90;;;;;;5105341;28;20035;-70
2022/08/27 04:13:32;;;;;;;10.30;3.30;;;13.40;99.90;;;;;;5063027;28;208399;-70
2022/08/27 04:15:58;;;;;;;10.52;3.35;;;13.40;99.90;;;;;;5094688;28;20074;-70
2022/08/27 04:18:24;;;;;;;9.98;3.67;;;13.40;99.90;;;;;;5064676;27;212954;-70
2022/08/27 04:20:53;;;;;;;12.75;3.58;;;13.40;99.90;;;;;;5113310;27;20582;-70
2022/08/27 04:23:20;;;;;;;11.98;3.22;;;13.30;99.90;;;;;;5053571;27;223907;-71
2022/08/27 04:25:46;;;;;;;9.07;3.30;;;13.30;99.90;;;;;;5106838;28;20077;-70
2022/08/27 04:28:13;;;;;;;14.70;3.80;;;13.30;99.90;;;;;;5059863;27;207240;-70
2022/08/27 04:30:41;;;;;;;8.52;3.25;;;13.30;99.90;;;;;;5117562;27;20052;-70
2022/08/27 04:33:07;;;;;;;10.43;3.45;;;13.20;99.90;;;;;;5056512;28;206624;-70
2022/08/27 04:35:34;;;;;;;9.13;3.60;;;13.20;99.90;;;;;;5105189;28;20062;-70
2022/08/27 04:38:00;;;;;;;14.18;3.67;;;13.20;99.90;;;;;;5059274;27;210405;-70
2022/08/27 04:41:18;;;;;;;11.55;3.53;;;13.20;99.90;;;;;;5119000;27;20063;-71
2022/08/27 04:43:14;;;;;;;11.30;3.90;;;13.20;99.90;;;;;;5058310;27;209875;-69
2022/08/27 04:45:44;;;;;;;12.55;3.78;;;13.20;99.90;;;;;;5105949;27;20051;-70
2022/08/27 04:48:12;;;;;;;11.05;3.90;;;13.20;99.90;;;;;;5054128;27;207571;-70
2022/08/27 04:50:44;;;;;;;11.60;4.00;;;13.20;99.90;;;;;;5106488;27;20059;-70
2022/08/27 04:53:13;;;;;;;9.90;3.30;;;13.20;99.90;;;;;;5048120;28;209941;-70
2022/08/27 04:55:45;;;;;;;11.75;3.45;;;13.20;99.90;;;;;;5104674;27;20055;-69
2022/08/27 04:58:12;;;;;;;10.90;3.47;;;13.10;99.90;;;;;;5059004;27;211213;-69
2022/08/27 05:00:42;;;;;;;8.20;3.05;;;13.10;99.90;;;;;;5093314;28;20051;-70
2022/08/27 05:03:09;;;;;;;10.93;3.05;;;13.10;99.90;;;;;;5059189;27;209097;-69
2022/08/27 05:05:35;;;;;;;9.60;3.30;;;13.10;99.90;;;;;;5106833;27;20059;-69
2022/08/27 05:08:02;;;;;;;11.53;3.43;;;13.10;99.90;;;;;;5054361;27;221964;-69
2022/08/27 05:10:28;;;;;;;11.38;3.60;;;13.10;99.90;;;;;;5103481;27;20454;-70
2022/08/27 05:12:54;;;;;;;11.07;3.72;;;13.20;99.90;;;;;;5080835;27;214421;-71
2022/08/27 05:15:21;;;;;;;10.15;3.25;;;13.20;99.90;;;;;;5073779;28;64358;-70
2022/08/27 05:17:47;;;;;;;12.50;3.38;;;13.20;99.90;;;;;;5104678;28;20056;-70
2022/08/27 05:20:13;;;;;;;13.27;3.65;;;13.20;99.90;;;;;;5059869;27;254289;-70
2022/08/27 05:22:39;;;;;;;11.15;3.40;;;13.30;99.90;;;;;;5103078;27;20058;-69
2022/08/27 05:25:06;;;;;;;10.70;3.35;;;13.30;99.90;;;;;;5040278;28;208799;-70
2022/08/27 05:27:32;;;;;;;10.65;3.42;;;13.30;99.90;;;;;;5104043;28;20055;-70
2022/08/27 05:29:58;;;;;;;11.88;3.85;;;13.30;99.90;;;;;;5073824;27;220608;-70
2022/08/27 05:32:24;;;;;;;9.05;3.33;;;13.40;99.90;;;;;;5101980;28;20047;-69
2022/08/27 05:34:50;;;;;;;9.85;3.63;;;13.50;99.90;;;;;;5065951;27;224657;-69
2022/08/27 05:37:17;;;;;;;11.20;3.38;;;13.50;99.90;;;;;;5100984;28;20047;-69
2022/08/27 05:39:43;;;;;;;11.02;3.88;;;13.50;99.90;;;;;;5046896;27;222094;-70
2022/08/27 05:42:09;;;;;;;12.88;3.80;;;13.70;99.90;;;;;;5101569;28;20047;-69
2022/08/27 05:44:35;;;;;;;11.18;3.97;;;13.70;99.90;;;;;;5049265;27;206849;-71
2022/08/27 05:47:02;;;;;;;9.90;3.72;;;13.70;99.90;;;;;;5107600;27;20059;-69
2022/08/27 05:49:28;;;;;;;14.18;4.45;;;13.80;99.90;;;;;;5054877;27;225281;-69
2022/08/27 05:51:54;;;;;;;11.52;3.63;;;13.90;99.90;;;;;;5099052;28;20056;-70
2022/08/27 05:54:20;;;;;;;10.05;3.50;;;14.10;99.90;;;;;;5069485;27;206733;-70
2022/08/27 05:56:50;;;;;;;12.98;3.38;;;14.20;99.90;;;;;;5108957;27;20423;-70
2022/08/27 06:02:03;;;;;;;14.80;3.00;;;14.40;99.90;;;;;;5104081;28;20039;-71
2022/08/27 06:04:29;;;;;;;10.82;3.50;;;14.60;99.90;;;;;;5057551;27;207405;-71
2022/08/27 06:06:55;;;;;;;15.10;3.80;;;14.70;99.90;;;;;;5101461;28;20044;-70
2022/08/27 06:09:24;;;;;;;9.85;3.20;;;14.80;99.90;;;;;;5060526;27;210188;-70
2022/08/27 06:11:53;;;;;;;11.45;3.25;;;14.80;99.90;;;;;;5109203;28;20074;-70
2022/08/27 06:14:32;;;;;;;8.90;3.22;;;14.90;99.90;;;;;;5065100;27;207251;-70
2022/08/27 06:17:05;;;;;;;12.52;3.10;;;15.10;99.90;;;;;;5132556;28;20060;-70
2022/08/27 06:19:37;;;;;;;9.20;3.00;;;15.10;99.90;;;;;;5101139;27;206246;-71
2022/08/27 06:22:03;;;;;;;10.60;3.03;;;15.30;99.90;;;;;;5123168;28;20066;-70
2022/08/27 06:24:29;;;;;;;10.45;3.60;;;15.40;99.90;;;;;;5085803;27;206513;-71
2022/08/27 06:26:56;;;;;;;10.57;3.25;;;15.50;99.90;;;;;;5109643;28;20039;-70
2022/08/27 06:29:23;;;;;;;9.57;2.85;;;15.50;99.90;;;;;;5046157;27;207643;-69
2022/08/27 06:31:51;;;;;;;10.38;2.95;;;15.60;99.90;;;;;;5084540;28;20063;-70
2022/08/27 06:34:17;;;;;;;12.07;2.78;;;15.70;99.90;;;;;;5043079;28;206624;-71
2022/08/27 06:36:43;;;;;;;10.35;2.88;;;15.80;99.90;;;;;;5104390;28;20070;-70
2022/08/27 06:39:12;;;;;;;9.10;2.78;;;15.90;99.90;;;;;;5051794;28;178953;-70
2022/08/27 06:41:39;;;;;;;10.45;2.78;;;16.00;99.90;;;;;;5104352;28;20047;-71
2022/08/27 06:44:06;;;;;;;13.20;2.70;;;16.20;99.90;;;;;;5070636;27;181566;-71
2022/08/27 06:46:32;;;;;;;9.63;2.50;;;16.30;99.90;;;;;;5104573;28;20052;-70
2022/08/27 06:48:59;;;;;;;9.20;2.63;;;16.50;99.90;;;;;;5064610;27;212716;-70
2022/08/27 06:51:29;;;;;;;14.77;2.72;;;16.70;99.90;;;;;;5101411;28;20059;-71
2022/08/27 06:53:57;;;;;;;10.73;2.75;;;16.80;99.90;;;;;;5058879;27;206597;-71
2022/08/27 06:56:24;;;;;;;9.43;2.53;;;16.90;99.90;;;;;;5109021;27;20039;-71
2022/08/27 06:58:58;;;;;;;9.27;2.40;;;17.00;99.90;;;;;;5052638;27;210708;-71
2022/08/27 07:01:28;;;;;;;10.35;2.67;;;17.00;99.90;;;;;;5105217;28;20055;-71
2022/08/27 07:03:57;;;;;;;11.75;2.30;;;17.10;99.90;;;;;;5060609;27;217844;-71
2022/08/27 07:06:25;;;;;;;11.35;2.25;;;17.30;99.90;;;;;;5098428;28;20503;-70
2022/08/27 07:08:51;;;;;;;13.77;2.53;;;17.40;99.90;;;;;;5057435;28;206105;-70
2022/08/27 07:11:17;;;;;;;9.48;2.00;;;17.50;99.90;;;;;;5102366;28;20035;-70
2022/08/27 07:13:46;;;;;;;10.45;2.20;;;17.60;99.90;;;;;;5062379;27;213718;-70
2022/08/27 07:16:15;;;;;;;9.25;1.98;;;17.70;99.90;;;;;;5110722;27;20074;-71
2022/08/27 07:18:42;;;;;;;9.25;2.25;;;17.70;99.90;;;;;;5096355;27;242861;-72
2022/08/27 07:21:08;;;;;;;11.52;2.33;;;17.80;99.90;;;;;;5065839;28;204164;-69
2022/08/27 07:23:37;;;;;;;11.68;2.08;;;17.90;99.90;;;;;;5053918;28;212967;-69
2022/08/27 07:26:11;;;;;;;12.20;2.35;;;18.00;99.90;;;;;;5108353;28;20058;-69
2022/08/27 07:28:39;;;;;;;13.32;2.40;;;18.20;99.90;;;;;;5057252;27;223776;-68
2022/08/27 07:31:07;;;;;;;13.00;2.30;;;18.30;99.90;;;;;;5106255;28;20067;-68
2022/08/27 07:33:35;;;;;;;11.45;2.10;;;18.40;99.90;;;;;;5089804;27;209366;-68
2022/08/27 07:36:02;;;;;;;10.98;2.30;;;18.60;99.90;;;;;;5080033;27;228899;-68
2022/08/27 07:38:28;;;;;;;14.82;2.15;;;18.70;99.90;;;;;;5063346;27;207833;-68
2022/08/27 07:40:54;;;;;;;9.10;2.20;;;18.80;99.90;;;;;;5106546;27;20488;-69
2022/08/27 07:46:05;;;;;;;10.05;1.70;;;19.10;99.90;;;;;;5106243;28;20047;-69
2022/08/27 07:48:33;;;;;;;9.02;1.85;;;19.20;99.90;;;;;;5063820;27;209700;-69
2022/08/27 07:51:03;;;;;;;11.55;1.80;;;19.40;99.90;;;;;;5115277;27;20428;-69
2022/08/27 10:04:06;;;;;;;13.20;1.95;;;22.30;97.10;;;;;;5033310;27;2009931;-82
2022/08/27 10:06:32;;;;;;;14.00;2.20;;;22.30;97.90;;;;;;5093909;28;20048;-78
2022/08/27 10:09:12;;;;;;;9.05;1.70;;;22.20;97.30;;;;;;5052177;28;214246;-82
2022/08/27 10:11:58;;;;;;;11.75;1.73;;;22.00;97.30;;;;;;5098938;28;20059;-79
2022/08/27 10:14:33;;;;;;;8.48;1.58;;;21.80;97.30;;;;;;5050873;28;225640;-80
2022/08/27 10:17:22;;;;;;;10.05;1.50;;;21.70;97.40;;;;;;5095249;28;20409;-79
2022/08/27 10:20:03;;;;;;;11.48;1.63;;;21.70;97.30;;;;;;5048776;28;262656;-79
2022/08/27 10:22:35;;;;;;;12.65;1.75;;;21.60;97.70;;;;;;5078956;28;20048;-79
2022/08/27 10:25:10;;;;;;;15.50;1.88;;;21.60;97.80;;;;;;5053213;28;216735;-82
2022/08/27 10:28:02;;;;;;;9.98;1.50;;;21.60;97.70;;;;;;5079772;28;20047;-79
2022/08/27 10:30:48;;;;;;;10.75;1.70;;;21.50;97.90;;;;;;5039343;28;208173;-83
2022/08/27 10:33:50;;;;;;;13.57;2.00;;;21.60;97.80;;;;;;5059012;28;208681;-85
2022/08/27 10:36:35;;;;;;;11.57;1.83;;;21.60;97.50;;;;;;5079927;28;20052;-82
2022/08/27 10:39:34;;;;;;;9.90;1.73;;;21.70;97.30;;;;;;5054515;28;231336;-78
2022/08/27 10:42:17;;;;;;;11.57;1.70;;;21.60;97.60;;;;;;5098658;28;21568;-85
2022/08/27 10:45:14;;;;;;;9.40;1.30;;;21.60;97.60;;;;;;5020334;28;266722;-79
2022/08/27 10:48:03;;;;;;;11.25;1.65;;;21.70;97.40;;;;;;5100330;28;20052;-84
2022/08/27 10:50:49;;;;;;;11.63;1.80;;;21.70;96.90;;;;;;5051251;28;207496;-80
2022/08/27 10:56:34;;;;;;;7.82;1.48;;;21.70;97.00;;;;;;5092977;28;20054;-80
2022/08/27 10:59:17;;;;;;;13.32;1.70;;;21.70;97.20;;;;;;5056531;28;267294;-85
2022/08/27 11:02:17;;;;;;;10.27;1.45;;;21.70;96.90;;;;;;5120596;28;20056;-90
2022/08/27 11:04:49;;;;;;;9.23;1.50;;;21.70;97.20;;;;;;5047314;28;251043;-87
2022/08/27 11:07:39;;;;;;;12.13;1.80;;;21.80;97.30;;;;;;5088379;28;20497;-86
2022/08/27 11:10:14;;;;;;;9.88;1.73;;;21.70;96.60;;;;;;5046223;28;212982;-88
2022/08/27 11:12:45;;;;;;;11.50;1.63;;;21.90;97.10;;;;;;5077801;28;20044;-84
2022/08/27 11:15:24;;;;;;;12.55;1.90;;;22.10;97.30;;;;;;5000544;28;222187;-84
2022/08/27 11:18:21;;;;;;;10.43;1.60;;;22.30;97.00;;;;;;5049487;28;221081;-84
2022/08/27 11:21:13;;;;;;;10.05;1.67;;;22.50;96.10;;;;;;5054979;28;238939;-85
2022/08/27 11:23:51;;;;;;;12.27;1.92;;;22.60;96.50;;;;;;5027322;28;220961;-84
2022/08/27 11:26:20;;;;;;;11.15;1.77;;;22.60;96.40;;;;;;5065873;28;20071;-85
2022/08/27 11:28:53;;;;;;;12.40;1.60;;;22.80;96.40;;;;;;5035452;28;207276;-83
2022/08/27 11:31:42;;;;;;;8.40;1.40;;;22.80;95.70;;;;;;5096097;28;20409;-84
2022/08/27 11:34:41;;;;;;;9.23;1.60;;;23.00;95.80;;;;;;5034291;28;209936;-84
2022/08/27 11:37:29;;;;;;;8.38;1.33;;;22.90;95.10;;;;;;5072898;28;20040;-84
2022/08/27 11:40:16;;;;;;;8.00;1.13;;;22.90;94.90;;;;;;5021922;28;220889;-83
2022/08/27 11:42:52;;;;;;;8.40;1.50;;;22.90;95.50;;;;;;5077834;28;20048;-85
2022/08/27 11:45:29;;;;;;;9.45;1.85;;;23.00;95.50;;;;;;4987829;28;207235;-84
2022/08/27 11:47:58;;;;;;;8.07;1.42;;;24.30;95.40;;;;;;5044733;28;194125;-83
2022/08/27 11:50:29;;;;;;;10.27;1.65;;;25.00;95.40;;;;;;5028875;28;224897;-85
2022/08/27 11:53:04;;;;;;;10.10;1.60;;;25.20;94.40;;;;;;5027430;28;244644;-83
2022/08/27 11:55:36;;;;;;;10.50;1.67;;;24.60;93.20;;;;;;5078902;28;20062;-85
2022/08/27 11:58:05;;;;;;;13.95;1.67;;;23.70;93.20;;;;;;5038063;28;203513;-85
2022/08/27 12:00:35;;;;;;;10.65;1.63;;;23.20;94.00;;;;;;5056057;28;20509;-85
2022/08/27 12:03:22;;;;;;;9.73;1.60;;;23.00;94.70;;;;;;5033544;28;211634;-88
2022/08/27 12:05:54;;;;;;;9.70;1.63;;;23.00;94.80;;;;;;5056598;28;20052;-87
2022/08/27 12:08:20;;;;;;;11.25;1.75;;;23.10;94.60;;;;;;5048052;28;209146;-80
2022/08/27 12:10:52;;;;;;;9.88;1.75;;;23.20;94.60;;;;;;5089101;28;20052;-85
2022/08/27 12:13:43;;;;;;;9.80;1.50;;;23.30;94.50;;;;;;5039077;28;214196;-85
2022/08/27 12:16:22;;;;;;;11.05;1.70;;;24.00;94.40;;;;;;5072899;28;20055;-83
2022/08/27 12:19:22;;;;;;;12.32;1.40;;;24.50;93.30;;;;;;5033198;28;210087;-83
2022/08/27 12:22:13;;;;;;;7.82;1.40;;;24.80;92.00;;;;;;5074376;22;20340;-86
2022/08/27 12:24:57;;;;;;;8.43;1.50;;;25.60;92.10;;;;;;4956998;28;172325;-85
2022/08/27 12:27:39;;;;;;;8.48;1.58;;;26.20;90.60;;;;;;4998860;28;20049;-86
2022/08/27 12:30:50;;;;;;;8.25;1.55;;;26.80;89.40;;;;;;4934993;28;229134;-86
2022/08/27 12:33:44;;;;;;;6.38;1.20;;;27.30;84.30;;;;;;4929436;28;253042;-87
2022/08/27 12:36:24;;;;;;;9.65;1.88;;;27.70;84.30;;;;;;4958303;28;20050;-87
2022/08/27 12:38:55;;;;;;;9.80;1.88;;;27.90;81.80;;;;;;4932654;28;253833;-86
2022/08/27 12:41:27;;;;;;;13.35;1.80;;;28.40;81.90;;;;;;4974381;28;20081;-86
2022/08/27 12:44:08;;;;;;;9.27;1.40;;;29.00;78.90;;;;;;4917510;28;203463;-88
2022/08/27 12:46:46;;;;;;;11.10;1.40;;;29.00;77.70;;;;;;4945118;28;20058;-85
2022/08/27 12:49:17;;;;;;;8.18;1.40;;;27.90;76.70;;;;;;4921990;28;169447;-87
2022/08/27 12:51:44;;;;;;;9.02;1.35;;;27.10;78.80;;;;;;4957704;28;20050;-88
2022/08/27 12:54:37;;;;;;;9.32;1.40;;;26.90;77.20;;;;;;4932089;28;198644;-87
2022/08/27 12:57:21;;;;;;;7.60;1.23;;;27.10;77.80;;;;;;4961937;28;20078;-87
2022/08/27 13:00:13;;;;;;;9.32;1.60;;;27.30;77.10;;;;;;4912015;28;250285;-88
2022/08/27 13:03:20;;;;;;;7.97;1.30;;;26.90;76.10;;;;;;4990308;28;20038;-85
2022/08/27 13:05:50;;;;;;;7.70;1.27;;;27.20;76.50;;;;;;4851993;29;97831;-86
2022/08/27 13:08:19;;;;;;;8.82;1.30;;;26.70;77.70;;;;;;4901466;28;192698;-85
2022/08/27 13:10:52;;;;;;;10.50;1.40;;;26.20;78.60;;;;;;4953043;29;20066;-85
2022/08/27 13:13:25;;;;;;;8.02;1.42;;;26.50;78.90;;;;;;4895700;28;227655;-86
2022/08/27 13:15:55;;;;;;;10.60;1.60;;;27.10;78.30;;;;;;4924620;29;20070;-86
2022/08/27 13:18:28;;;;;;;;;;;27.70;78.40;;;;;;4867379;28;1001052;-85
2022/08/27 13:21:26;;;;;;;9.05;1.60;;;28.20;75.20;;;;;;4932453;29;20383;-85
2022/08/27 13:23:56;;;;;;;9.07;1.70;;;28.80;74.20;;;;;;4881768;28;238625;-86
2022/08/27 13:26:28;;;;;;;8.77;1.40;;;29.10;75.00;;;;;;4919965;28;20043;-87
2022/08/27 13:28:58;;;;;;;9.32;1.38;;;28.00;73.10;;;;;;4861599;29;216294;-87
2022/08/27 13:31:30;;;;;;;10.57;1.33;;;27.20;74.70;;;;;;4902783;29;20051;-87
2022/08/27 13:33:57;;;;;;;8.60;1.20;;;26.80;75.10;;;;;;4871738;29;206268;-86
2022/08/27 13:36:32;;;;;;;6.72;1.30;;;26.40;76.00;;;;;;4971015;28;20201;-85
2022/08/27 13:39:01;;;;;;;8.15;1.50;;;26.40;75.60;;;;;;4901591;28;200083;-87
2022/08/27 13:41:36;;;;;;;11.27;1.92;;;26.70;76.00;;;;;;4945418;28;20069;-87
2022/08/27 13:44:09;;;;;;;8.63;1.50;;;27.30;74.60;;;;;;4934713;28;210318;-86
2022/08/27 13:46:45;;;;;;;7.80;1.50;;;27.30;74.60;;;;;;4957655;28;20054;-87
2022/08/27 13:49:20;;;;;;;8.73;1.10;;;28.00;74.70;;;;;;4905650;28;186051;-87
2022/08/27 13:51:48;;;;;;;7.40;1.30;;;27.50;72.80;;;;;;4973925;28;20070;-87
2022/08/27 13:54:16;;;;;;;8.80;1.58;;;26.50;74.90;;;;;;4936217;28;220725;-86
2022/08/27 13:56:45;;;;;;;10.20;1.50;;;26.00;75.30;;;;;;4977083;28;20062;-88
2022/08/27 13:59:22;;;;;;;9.25;1.50;;;25.60;76.50;;;;;;4930234;28;204206;-86
2022/08/27 14:01:54;;;;;;;9.40;1.90;;;25.90;77.50;;;;;;5004950;28;20046;-89
2022/08/27 14:04:25;;;;;;;9.85;1.73;;;26.60;76.60;;;;;;4956193;28;204685;-91
2022/08/27 14:06:52;;;;;;;6.75;1.20;;;27.60;76.20;;;;;;4991606;28;20042;-90
2022/08/27 14:09:25;;;;;;;9.98;1.60;;;28.50;75.70;;;;;;4939765;28;135556;-89
2022/08/27 14:12:05;;;;;;;8.18;1.30;;;27.70;73.80;;;;;;4969563;28;20062;-88
2022/08/27 14:14:40;;;;;;;9.18;1.30;;;26.70;73.90;;;;;;4928349;28;250959;-86
2022/08/27 14:17:21;;;;;;;8.10;1.50;;;25.90;74.80;;;;;;4990474;28;20050;-84
2022/08/27 14:19:48;;;;;;;8.80;1.55;;;26.00;76.20;;;;;;4962830;28;203809;-86
2022/08/27 14:22:14;;;;;;;9.95;1.55;;;26.20;76.00;;;;;;4990054;28;20065;-85
2022/08/27 14:24:40;;;;;;;8.70;1.35;;;26.90;75.60;;;;;;4920572;28;222367;-87
2022/08/27 14:27:13;;;;;;;9.63;1.33;;;27.40;72.70;;;;;;4988999;28;20468;-86
2022/08/27 14:29:48;;;;;;;8.90;1.43;;;27.80;72.70;;;;;;4348353;28;10001345;-85
2022/08/27 14:32:17;;;;;;;8.07;1.42;;;28.30;72.20;;;;;;4902159;29;20052;-85
2022/08/27 14:34:45;;;;;;;12.98;1.63;;;28.80;71.90;;;;;;4880907;28;211570;-85
2022/08/27 14:37:12;;;;;;;10.07;1.60;;;28.80;70.30;;;;;;4915065;28;20055;-88
2022/08/27 14:39:39;;;;;;;9.52;1.70;;;27.90;71.40;;;;;;4927373;28;168126;-86
2022/08/27 14:42:06;;;;;;;8.80;1.58;;;28.00;70.60;;;;;;4947920;28;20051;-86
2022/08/27 14:44:32;;;;;;;7.70;1.42;;;28.50;70.10;;;;;;4917118;28;204339;-84
2022/08/27 14:46:58;;;;;;;7.80;1.58;;;28.80;69.40;;;;;;4929336;28;20055;-85
2022/08/27 14:49:33;;;;;;;9.43;1.23;;;28.80;69.60;;;;;;4908234;28;206362;-86
2022/08/27 14:52:01;;;;;;;7.60;1.40;;;27.50;70.00;;;;;;4974701;28;20039;-85
2022/08/27 14:54:28;;;;;;;8.65;1.60;;;27.10;70.90;;;;;;4930505;28;210592;-86
2022/08/27 14:56:54;;;;;;;8.90;1.58;;;27.80;70.50;;;;;;4930667;28;20078;-85
2022/08/27 14:59:21;;;;;;;9.68;1.80;;;27.90;70.10;;;;;;4901220;28;215486;-85
2022/08/27 15:01:49;;;;;;;9.05;1.80;;;28.50;69.90;;;;;;4932044;28;20148;-86
2022/08/27 15:04:15;;;;;;;10.23;1.55;;;28.40;68.90;;;;;;4937632;28;239249;-87
2022/08/27 15:06:41;;;;;;;9.98;1.55;;;28.90;68.90;;;;;;4934239;29;20051;-86
2022/08/27 15:09:08;;;;;;;9.93;1.65;;;28.30;69.40;;;;;;4949843;28;206437;-88
2022/08/27 15:11:37;;;;;;;10.85;1.60;;;28.50;68.90;;;;;;4962808;28;20043;-87
2022/08/27 15:14:20;;;;;;;9.75;1.70;;;28.20;69.10;;;;;;4912127;28;214996;-87
2022/08/27 15:16:48;;;;;;;8.20;1.70;;;27.00;68.80;;;;;;4940072;29;20488;-87